sensor_id;sensor_type;location;lat;lon;timestamp;pressure;altitude;pressure_sealevel;temperature;humidity
49979;BME280;35869;50.990;6.962;2023-03-15T00:00:49;100942.63;;;2.58;94.01
49979;BME280;35869;50.990;6.962;2023-03-15T00:05:49;100951.97;;;2.68;93.56
49979;BME280;35869;50.990;6.962;2023-03-15T00:10:50;100949.47;;;2.60;94.34
49979;BME280;35869;50.990;6.962;2023-03-15T00:15:53;100946.84;;;2.68;93.84
49979;BME280;35869;50.990;6.962;2023-03-15T00:20:55;100957.09;;;2.71;93.57
49979;BME280;35869;50.990;6.962;2023-03-15T00:25:55;100960.53;;;2.68;95.05
49979;BME280;35869;50.990;6.962;2023-03-15T00:31:28;100960.50;;;2.72;95.03
49979;BME280;35869;50.990;6.962;2023-03-15T00:36:28;100956.25;;;2.67;95.48
49979;BME280;35869;50.990;6.962;2023-03-15T00:41:28;100969.03;;;2.74;95.05
49979;BME280;35869;50.990;6.962;2023-03-15T00:46:29;100976.69;;;2.80;95.46
49979;BME280;35869;50.990;6.962;2023-03-15T00:51:29;100974.94;;;2.85;95.47
49979;BME280;35869;50.990;6.962;2023-03-15T00:56:29;100981.84;;;2.77;97.30
49979;BME280;35869;50.990;6.962;2023-03-15T01:01:29;100963.84;;;2.80;98.11
49979;BME280;35869;50.990;6.962;2023-03-15T01:06:30;100975.72;;;2.91;97.73
49979;BME280;35869;50.990;6.962;2023-03-15T01:11:30;100986.03;;;2.87;99.00
49979;BME280;35869;50.990;6.962;2023-03-15T01:16:30;100981.03;;;2.72;100.00
49979;BME280;35869;50.990;6.962;2023-03-15T01:21:31;100990.28;;;2.94;100.00
49979;BME280;35869;50.990;6.962;2023-03-15T01:26:31;100991.09;;;2.99;99.91
49979;BME280;35869;50.990;6.962;2023-03-15T01:31:31;100991.91;;;3.01;99.43
49979;BME280;35869;50.990;6.962;2023-03-15T01:36:31;100998.78;;;2.98;100.00
49979;BME280;35869;50.990;6.962;2023-03-15T01:41:32;101009.09;;;2.93;100.00
49979;BME280;35869;50.990;6.962;2023-03-15T01:46:32;101016.75;;;3.01;100.00
49979;BME280;35869;50.990;6.962;2023-03-15T01:51:39;101017.66;;;2.92;100.00
49979;BME280;35869;50.990;6.962;2023-03-15T01:56:45;101021.13;;;2.88;100.00
49979;BME280;35869;50.990;6.962;2023-03-15T02:01:47;101025.41;;;2.87;100.00
49979;BME280;35869;50.990;6.962;2023-03-15T02:06:47;101028.69;;;3.06;100.00
49979;BME280;35869;50.990;6.962;2023-03-15T02:11:47;101022.78;;;2.95;100.00
49979;BME280;35869;50.990;6.962;2023-03-15T02:16:48;101029.69;;;2.88;100.00
49979;BME280;35869;50.990;6.962;2023-03-15T02:22:03;101033.09;;;2.89;100.00
49979;BME280;35869;50.990;6.962;2023-03-15T02:27:06;101038.38;;;2.71;100.00
49979;BME280;35869;50.990;6.962;2023-03-15T02:32:06;101033.25;;;2.71;100.00
49979;BME280;35869;50.990;6.962;2023-03-15T02:37:10;101033.25;;;2.67;100.00
49979;BME280;35869;50.990;6.962;2023-03-15T02:42:10;101021.16;;;2.80;100.00
49979;BME280;35869;50.990;6.962;2023-03-15T02:47:42;101029.06;;;2.54;100.00
49979;BME280;35869;50.990;6.962;2023-03-15T02:52:43;101027.38;;;2.50;100.00
49979;BME280;35869;50.990;6.962;2023-03-15T02:57:44;101041.94;;;2.48;100.00
49979;BME280;35869;50.990;6.962;2023-03-15T03:02:46;101044.56;;;2.40;100.00
49979;BME280;35869;50.990;6.962;2023-03-15T03:07:46;101047.97;;;2.36;100.00
49979;BME280;35869;50.990;6.962;2023-03-15T03:12:47;101051.41;;;2.32;100.00
49979;BME280;35869;50.990;6.962;2023-03-15T03:17:47;101053.16;;;2.30;100.00
49979;BME280;35869;50.990;6.962;2023-03-15T03:22:47;101065.97;;;2.26;100.00
49979;BME280;35869;50.990;6.962;2023-03-15T03:27:48;101067.72;;;2.19;100.00
49979;BME280;35869;50.990;6.962;2023-03-15T03:32:48;101081.41;;;2.20;100.00
49979;BME280;35869;50.990;6.962;2023-03-15T03:37:48;101089.97;;;2.11;100.00
49979;BME280;35869;50.990;6.962;2023-03-15T03:42:48;101095.09;;;2.09;100.00
49979;BME280;35869;50.990;6.962;2023-03-15T03:47:49;101096.84;;;1.98;100.00
49979;BME280;35869;50.990;6.962;2023-03-15T03:52:49;101096.00;;;1.98;100.00
49979;BME280;35869;50.990;6.962;2023-03-15T03:57:50;101096.84;;;2.01;100.00
49979;BME280;35869;50.990;6.962;2023-03-15T04:02:50;101101.97;;;2.03;100.00
49979;BME280;35869;50.990;6.962;2023-03-15T04:07:50;101096.84;;;1.98;100.00
49979;BME280;35869;50.990;6.962;2023-03-15T04:12:52;101100.28;;;1.96;100.00
49979;BME280;35869;50.990;6.962;2023-03-15T04:17:53;101112.25;;;2.00;100.00
49979;BME280;35869;50.990;6.962;2023-03-15T04:22:53;101120.78;;;2.02;100.00
49979;BME280;35869;50.990;6.962;2023-03-15T04:27:53;101119.94;;;1.97;100.00
49979;BME280;35869;50.990;6.962;2023-03-15T04:32:57;101131.03;;;2.00;100.00
49979;BME280;35869;50.990;6.962;2023-03-15T04:37:57;101135.28;;;2.04;100.00
49979;BME280;35869;50.990;6.962;2023-03-15T04:42:57;101149.81;;;2.07;100.00
49979;BME280;35869;50.990;6.962;2023-03-15T04:47:58;101157.50;;;2.11;100.00
49979;BME280;35869;50.990;6.962;2023-03-15T04:52:58;101160.09;;;2.01;100.00
49979;BME280;35869;50.990;6.962;2023-03-15T04:57:58;101160.91;;;2.04;100.00
49979;BME280;35869;50.990;6.962;2023-03-15T05:02:59;101161.78;;;2.03;100.00
49979;BME280;35869;50.990;6.962;2023-03-15T05:07:59;101162.66;;;1.96;100.00
49979;BME280;35869;50.990;6.962;2023-03-15T05:12:59;101170.31;;;1.99;100.00
49979;BME280;35869;50.990;6.962;2023-03-15T05:18:00;101167.78;;;1.98;100.00
49979;BME280;35869;50.990;6.962;2023-03-15T05:23:00;101178.03;;;1.87;100.00
49979;BME280;35869;50.990;6.962;2023-03-15T05:28:01;101182.31;;;1.91;100.00
49979;BME280;35869;50.990;6.962;2023-03-15T05:33:01;101194.28;;;1.86;100.00
49979;BME280;35869;50.990;6.962;2023-03-15T05:38:01;101196.00;;;1.82;100.00
49979;BME280;35869;50.990;6.962;2023-03-15T05:43:01;101214.78;;;1.81;100.00
49979;BME280;35869;50.990;6.962;2023-03-15T05:48:02;101223.34;;;1.82;100.00
49979;BME280;35869;50.990;6.962;2023-03-15T05:53:02;101231.03;;;1.82;100.00
49979;BME280;35869;50.990;6.962;2023-03-15T05:58:03;101242.97;;;1.83;100.00
49979;BME280;35869;50.990;6.962;2023-03-15T06:03:03;101264.31;;;1.76;100.00
49979;BME280;35869;50.990;6.962;2023-03-15T06:08:03;101263.47;;;1.71;100.00
49979;BME280;35869;50.990;6.962;2023-03-15T06:13:04;101279.72;;;1.79;100.00
49979;BME280;35869;50.990;6.962;2023-03-15T06:18:04;101282.25;;;1.86;100.00
49979;BME280;35869;50.990;6.962;2023-03-15T06:23:04;101287.41;;;1.82;100.00
49979;BME280;35869;50.990;6.962;2023-03-15T06:28:05;101290.81;;;1.85;100.00
49979;BME280;35869;50.990;6.962;2023-03-15T06:33:05;101286.53;;;1.74;100.00
49979;BME280;35869;50.990;6.962;2023-03-15T06:38:05;101289.97;;;1.77;100.00
49979;BME280;35869;50.990;6.962;2023-03-15T06:43:05;101295.94;;;1.79;100.00
49979;BME280;35869;50.990;6.962;2023-03-15T06:48:06;101317.31;;;1.83;100.00
49979;BME280;35869;50.990;6.962;2023-03-15T06:53:06;101332.69;;;1.83;100.00
49979;BME280;35869;50.990;6.962;2023-03-15T06:58:06;101331.81;;;1.84;100.00
49979;BME280;35869;50.990;6.962;2023-03-15T07:03:06;101339.50;;;1.87;100.00
49979;BME280;35869;50.990;6.962;2023-03-15T07:08:07;101349.78;;;1.84;100.00
49979;BME280;35869;50.990;6.962;2023-03-15T07:13:07;101358.31;;;1.86;100.00
49979;BME280;35869;50.990;6.962;2023-03-15T07:18:07;101367.72;;;1.90;100.00
49979;BME280;35869;50.990;6.962;2023-03-15T07:23:07;101380.53;;;1.93;100.00
49979;BME280;35869;50.990;6.962;2023-03-15T07:28:07;101395.94;;;1.96;100.00
49979;BME280;35869;50.990;6.962;2023-03-15T07:33:08;101401.06;;;1.95;100.00
49979;BME280;35869;50.990;6.962;2023-03-15T07:38:08;101406.16;;;1.93;100.00
49979;BME280;35869;50.990;6.962;2023-03-15T07:43:08;101413.00;;;1.97;100.00
49979;BME280;35869;50.990;6.962;2023-03-15T07:48:08;101415.56;;;2.05;100.00
49979;BME280;35869;50.990;6.962;2023-03-15T07:53:08;101434.41;;;2.05;100.00
49979;BME280;35869;50.990;6.962;2023-03-15T07:58:09;101438.66;;;2.09;100.00
49979;BME280;35869;50.990;6.962;2023-03-15T08:03:09;101449.78;;;2.16;100.00
49979;BME280;35869;50.990;6.962;2023-03-15T08:08:09;101449.78;;;2.08;100.00
49979;BME280;35869;50.990;6.962;2023-03-15T08:13:10;101460.06;;;2.19;100.00
49979;BME280;35869;50.990;6.962;2023-03-15T08:18:10;101462.63;;;2.21;100.00
49979;BME280;35869;50.990;6.962;2023-03-15T08:23:10;101471.19;;;2.27;100.00
49979;BME280;35869;50.990;6.962;2023-03-15T08:28:11;101477.19;;;2.32;100.00
49979;BME280;35869;50.990;6.962;2023-03-15T08:33:11;101484.03;;;2.38;100.00
49979;BME280;35869;50.990;6.962;2023-03-15T08:38:12;101492.59;;;2.51;100.00
49979;BME280;35869;50.990;6.962;2023-03-15T08:43:12;101497.75;;;2.52;100.00
49979;BME280;35869;50.990;6.962;2023-03-15T08:48:12;101510.59;;;2.60;100.00
49979;BME280;35869;50.990;6.962;2023-03-15T08:53:12;101519.16;;;2.83;100.00
49979;BME280;35869;50.990;6.962;2023-03-15T08:58:12;101527.72;;;2.88;100.00
49979;BME280;35869;50.990;6.962;2023-03-15T09:03:12;101534.56;;;3.03;100.00
49979;BME280;35869;50.990;6.962;2023-03-15T09:08:13;101533.69;;;3.21;100.00
49979;BME280;35869;50.990;6.962;2023-03-15T09:13:13;101531.13;;;3.30;100.00
49979;BME280;35869;50.990;6.962;2023-03-15T09:18:13;101531.97;;;3.31;100.00
49979;BME280;35869;50.990;6.962;2023-03-15T09:23:13;101531.94;;;3.47;100.00
49979;BME280;35869;50.990;6.962;2023-03-15T09:28:14;101539.66;;;3.46;100.00
49979;BME280;35869;50.990;6.962;2023-03-15T09:33:14;101544.78;;;3.55;100.00
49979;BME280;35869;50.990;6.962;2023-03-15T09:38:14;101543.91;;;3.64;100.00
49979;BME280;35869;50.990;6.962;2023-03-15T09:43:40;101549.06;;;3.61;100.00
49979;BME280;35869;50.990;6.962;2023-03-15T09:48:50;101553.31;;;3.66;100.00
49979;BME280;35869;50.990;6.962;2023-03-15T09:54:03;101559.31;;;3.65;100.00
49979;BME280;35869;50.990;6.962;2023-03-15T09:59:08;101552.44;;;3.83;100.00
49979;BME280;35869;50.990;6.962;2023-03-15T10:04:22;101547.25;;;3.90;100.00
49979;BME280;35869;50.990;6.962;2023-03-15T10:09:27;101552.31;;;4.12;100.00
49979;BME280;35869;50.990;6.962;2023-03-15T10:14:55;101546.22;;;4.34;100.00
49979;BME280;35869;50.990;6.962;2023-03-15T10:20:00;101543.66;;;4.30;100.00
49979;BME280;35869;50.990;6.962;2023-03-15T10:30:23;101553.72;;;4.69;97.44
49979;BME280;35869;50.990;6.962;2023-03-15T10:35:24;101559.81;;;4.54;100.00
49979;BME280;35869;50.990;6.962;2023-03-15T10:45:41;101561.34;;;4.83;100.00
49979;BME280;35869;50.990;6.962;2023-03-15T10:50:41;101562.81;;;5.13;96.45
49979;BME280;35869;50.990;6.962;2023-03-15T10:55:43;101562.00;;;5.11;97.39
49979;BME280;35869;50.990;6.962;2023-03-15T11:00:49;101554.03;;;5.35;88.76
49979;BME280;35869;50.990;6.962;2023-03-15T11:05:52;101559.97;;;5.44;93.53
49979;BME280;35869;50.990;6.962;2023-03-15T11:10:57;101569.50;;;5.35;97.42
49979;BME280;35869;50.990;6.962;2023-03-15T11:16:03;101572.81;;;5.48;95.49
49979;BME280;35869;50.990;6.962;2023-03-15T11:21:07;101576.13;;;5.61;92.99
49979;BME280;35869;50.990;6.962;2023-03-15T11:26:16;101581.25;;;5.66;94.05
49979;BME280;35869;50.990;6.962;2023-03-15T11:31:19;101586.16;;;5.88;92.00
49979;BME280;35869;50.990;6.962;2023-03-15T11:36:21;101590.63;;;5.73;94.07
49979;BME280;35869;50.990;6.962;2023-03-15T11:41:48;101588.63;;;6.01;94.37
49979;BME280;35869;50.990;6.962;2023-03-15T11:47:10;101597.84;;;6.23;91.28
49979;BME280;35869;50.990;6.962;2023-03-15T11:52:14;101606.22;;;6.39;87.42
49979;BME280;35869;50.990;6.962;2023-03-15T12:07:32;101610.06;;;6.75;79.38
49979;BME280;35869;50.990;6.962;2023-03-15T12:12:35;101610.88;;;6.77;83.77
49979;BME280;35869;50.990;6.962;2023-03-15T12:27:53;101615.00;;;6.90;87.58
49979;BME280;35869;50.990;6.962;2023-03-15T12:32:54;101612.94;;;6.54;89.76
49979;BME280;35869;50.990;6.962;2023-03-15T12:37:57;101594.41;;;7.38;76.98
49979;BME280;35869;50.990;6.962;2023-03-15T12:43:00;101594.72;;;7.21;79.34
49979;BME280;35869;50.990;6.962;2023-03-15T12:53:03;101592.41;;;7.05;86.89
49979;BME280;35869;50.990;6.962;2023-03-15T12:58:04;101592.34;;;7.59;77.89
49979;BME280;35869;50.990;6.962;2023-03-15T13:03:14;101588.88;;;7.60;81.68
49979;BME280;35869;50.990;6.962;2023-03-15T13:08:24;101578.53;;;8.03;69.41
49979;BME280;35869;50.990;6.962;2023-03-15T13:13:59;101583.38;;;7.77;74.38
49979;BME280;35869;50.990;6.962;2023-03-15T13:19:20;101573.00;;;8.21;74.98
49979;BME280;35869;50.990;6.962;2023-03-15T13:24:30;101580.63;;;8.29;71.69
49979;BME280;35869;50.990;6.962;2023-03-15T13:29:32;101580.41;;;8.80;66.31
49979;BME280;35869;50.990;6.962;2023-03-15T13:34:33;101582.31;;;8.30;77.87
49979;BME280;35869;50.990;6.962;2023-03-15T13:39:34;101583.25;;;8.27;77.84
49979;BME280;35869;50.990;6.962;2023-03-15T13:44:34;101577.94;;;8.74;75.85
49979;BME280;35869;50.990;6.962;2023-03-15T13:49:34;101582.94;;;8.43;80.04
49979;BME280;35869;50.990;6.962;2023-03-15T13:54:35;101580.63;;;8.69;79.59
49979;BME280;35869;50.990;6.962;2023-03-15T14:00:01;101587.56;;;8.69;79.77
49979;BME280;35869;50.990;6.962;2023-03-15T14:05:05;101588.03;;;8.86;79.37
49979;BME280;35869;50.990;6.962;2023-03-15T14:10:29;101591.72;;;8.36;83.34
49979;BME280;35869;50.990;6.962;2023-03-15T14:15:36;101602.88;;;8.78;75.26
49979;BME280;35869;50.990;6.962;2023-03-15T14:25:42;101602.41;;;8.62;80.40
49979;BME280;35869;50.990;6.962;2023-03-15T14:30:50;101604.50;;;8.43;80.16
49979;BME280;35869;50.990;6.962;2023-03-15T14:35:57;101599.25;;;8.48;72.54
49979;BME280;35869;50.990;6.962;2023-03-15T14:41:17;101615.88;;;7.93;81.39
49979;BME280;35869;50.990;6.962;2023-03-15T14:46:18;101613.47;;;8.25;81.73
49979;BME280;35869;50.990;6.962;2023-03-15T14:51:19;101620.47;;;8.22;78.40
49979;BME280;35869;50.990;6.962;2023-03-15T14:56:22;101619.47;;;7.84;80.25
49979;BME280;35869;50.990;6.962;2023-03-15T15:01:24;101624.28;;;8.02;73.54
49979;BME280;35869;50.990;6.962;2023-03-15T15:06:26;101620.44;;;8.23;63.19
49979;BME280;35869;50.990;6.962;2023-03-15T15:11:27;101630.22;;;8.09;63.20
49979;BME280;35869;50.990;6.962;2023-03-15T15:16:27;101634.75;;;7.96;76.42
49979;BME280;35869;50.990;6.962;2023-03-15T15:21:29;101629.66;;;7.93;73.40
49979;BME280;35869;50.990;6.962;2023-03-15T15:26:30;101625.25;;;7.98;78.31
49979;BME280;35869;50.990;6.962;2023-03-15T15:31:30;101621.97;;;7.89;78.81
49979;BME280;35869;50.990;6.962;2023-03-15T15:36:42;101621.69;;;8.04;72.45
49979;BME280;35869;50.990;6.962;2023-03-15T15:41:42;101617.59;;;7.92;74.99
49979;BME280;35869;50.990;6.962;2023-03-15T15:46:42;101609.00;;;7.92;70.53
49979;BME280;35869;50.990;6.962;2023-03-15T15:51:44;101608.22;;;7.85;74.58
49979;BME280;35869;50.990;6.962;2023-03-15T15:56:51;101603.50;;;7.62;81.42
49979;BME280;35869;50.990;6.962;2023-03-15T16:01:53;101604.00;;;7.81;68.04
49979;BME280;35869;50.990;6.962;2023-03-15T16:06:56;101607.16;;;7.51;77.24
49979;BME280;35869;50.990;6.962;2023-03-15T16:11:57;101597.34;;;7.68;78.91
49979;BME280;35869;50.990;6.962;2023-03-15T16:16:58;101601.72;;;7.64;76.85
49979;BME280;35869;50.990;6.962;2023-03-15T16:21:58;101597.34;;;7.68;70.17
49979;BME280;35869;50.990;6.962;2023-03-15T16:27:03;101598.41;;;7.56;72.25
49979;BME280;35869;50.990;6.962;2023-03-15T16:32:05;101598.47;;;7.53;77.30
49979;BME280;35869;50.990;6.962;2023-03-15T16:37:05;101610.81;;;7.39;81.75
49979;BME280;35869;50.990;6.962;2023-03-15T16:42:10;101613.47;;;7.34;74.64
49979;BME280;35869;50.990;6.962;2023-03-15T16:47:11;101617.78;;;7.32;81.74
49979;BME280;35869;50.990;6.962;2023-03-15T16:52:12;101624.09;;;7.16;85.60
49979;BME280;35869;50.990;6.962;2023-03-15T16:57:19;101620.72;;;7.09;86.88
49979;BME280;35869;50.990;6.962;2023-03-15T17:02:23;101625.31;;;6.93;88.37
49979;BME280;35869;50.990;6.962;2023-03-15T17:07:28;101638.38;;;6.83;88.89
49979;BME280;35869;50.990;6.962;2023-03-15T17:12:30;101647.97;;;6.75;88.99
49979;BME280;35869;50.990;6.962;2023-03-15T17:17:30;101642.13;;;6.59;89.78
49979;BME280;35869;50.990;6.962;2023-03-15T17:22:30;101644.84;;;6.48;90.35
49979;BME280;35869;50.990;6.962;2023-03-15T17:27:34;101641.53;;;6.38;91.13
49979;BME280;35869;50.990;6.962;2023-03-15T17:32:35;101646.84;;;6.26;91.50
49979;BME280;35869;50.990;6.962;2023-03-15T17:37:36;101653.00;;;6.13;92.30
49979;BME280;35869;50.990;6.962;2023-03-15T17:42:37;101659.13;;;6.03;92.39
49979;BME280;35869;50.990;6.962;2023-03-15T17:47:38;101662.69;;;5.91;93.15
49979;BME280;35869;50.990;6.962;2023-03-15T17:52:40;101664.50;;;5.78;92.97
49979;BME280;35869;50.990;6.962;2023-03-15T17:57:41;101668.91;;;5.70;93.91
49979;BME280;35869;50.990;6.962;2023-03-15T18:02:43;101664.69;;;5.58;94.01
49979;BME280;35869;50.990;6.962;2023-03-15T18:07:44;101669.03;;;5.50;93.25
49979;BME280;35869;50.990;6.962;2023-03-15T18:12:47;101667.38;;;5.43;91.55
49979;BME280;35869;50.990;6.962;2023-03-15T18:17:47;101675.19;;;5.35;92.17
49979;BME280;35869;50.990;6.962;2023-03-15T18:22:48;101677.81;;;5.26;89.94
49979;BME280;35869;50.990;6.962;2023-03-15T18:27:48;101684.75;;;5.15;89.86
49979;BME280;35869;50.990;6.962;2023-03-15T18:32:50;101690.84;;;5.06;87.73
49979;BME280;35869;50.990;6.962;2023-03-15T18:37:51;101693.44;;;5.03;88.66
49979;BME280;35869;50.990;6.962;2023-03-15T18:42:51;101696.06;;;4.99;91.70
49979;BME280;35869;50.990;6.962;2023-03-15T18:47:51;101700.41;;;4.88;92.49
49979;BME280;35869;50.990;6.962;2023-03-15T18:52:52;101709.00;;;4.87;93.87
49979;BME280;35869;50.990;6.962;2023-03-15T18:57:53;101707.31;;;4.73;90.72
49979;BME280;35869;50.990;6.962;2023-03-15T19:02:56;101710.75;;;4.72;93.71
49979;BME280;35869;50.990;6.962;2023-03-15T19:07:57;101718.53;;;4.63;96.12
49979;BME280;35869;50.990;6.962;2023-03-15T19:12:58;101710.81;;;4.60;94.71
49979;BME280;35869;50.990;6.962;2023-03-15T19:17:58;101719.41;;;4.59;94.79
49979;BME280;35869;50.990;6.962;2023-03-15T19:22:58;101707.44;;;4.52;95.26
49979;BME280;35869;50.990;6.962;2023-03-15T19:27:58;101714.28;;;4.44;96.12
49979;BME280;35869;50.990;6.962;2023-03-15T19:32:58;101709.19;;;4.41;97.86
49979;BME280;35869;50.990;6.962;2023-03-15T19:37:59;101704.88;;;4.37;96.85
49979;BME280;35869;50.990;6.962;2023-03-15T19:42:59;101705.78;;;4.30;96.06
49979;BME280;35869;50.990;6.962;2023-03-15T19:47:59;101710.06;;;4.29;96.37
49979;BME280;35869;50.990;6.962;2023-03-15T19:52:59;101710.94;;;4.23;96.28
49979;BME280;35869;50.990;6.962;2023-03-15T19:58:00;101717.78;;;4.15;95.37
49979;BME280;35869;50.990;6.962;2023-03-15T20:03:00;101715.22;;;4.14;96.16
49979;BME280;35869;50.990;6.962;2023-03-15T20:08:00;101722.94;;;4.15;95.55
49979;BME280;35869;50.990;6.962;2023-03-15T20:13:01;101720.41;;;4.11;96.25
49979;BME280;35869;50.990;6.962;2023-03-15T20:18:01;101725.53;;;4.03;94.51
49979;BME280;35869;50.990;6.962;2023-03-15T20:23:02;101729.84;;;3.99;94.13
49979;BME280;35869;50.990;6.962;2023-03-15T20:28:02;101733.25;;;3.97;93.62
49979;BME280;35869;50.990;6.962;2023-03-15T20:33:02;101736.69;;;3.96;94.71
49979;BME280;35869;50.990;6.962;2023-03-15T20:38:02;101736.69;;;3.90;93.57
49979;BME280;35869;50.990;6.962;2023-03-15T20:43:03;101726.41;;;3.87;94.42
49979;BME280;35869;50.990;6.962;2023-03-15T20:48:04;101740.16;;;3.81;95.09
49979;BME280;35869;50.990;6.962;2023-03-15T20:53:04;101741.84;;;3.78;95.33
49979;BME280;35869;50.990;6.962;2023-03-15T20:58:04;101734.13;;;3.68;94.29
49979;BME280;35869;50.990;6.962;2023-03-15T21:03:10;101736.69;;;3.71;95.80
49979;BME280;35869;50.990;6.962;2023-03-15T21:08:11;101733.28;;;3.65;93.90
49979;BME280;35869;50.990;6.962;2023-03-15T21:13:12;101719.56;;;3.61;93.78
49979;BME280;35869;50.990;6.962;2023-03-15T21:18:13;101736.69;;;3.59;93.37
49979;BME280;35869;50.990;6.962;2023-03-15T21:23:13;101741.84;;;3.53;93.13
49979;BME280;35869;50.990;6.962;2023-03-15T21:28:14;101731.56;;;3.53;93.32
49979;BME280;35869;50.990;6.962;2023-03-15T21:33:14;101728.97;;;3.56;95.31
49979;BME280;35869;50.990;6.962;2023-03-15T21:38:14;101720.41;;;3.53;95.87
49979;BME280;35869;50.990;6.962;2023-03-15T21:43:14;101713.53;;;3.39;93.77
49979;BME280;35869;50.990;6.962;2023-03-15T21:48:15;101717.81;;;3.33;95.23
49979;BME280;35869;50.990;6.962;2023-03-15T21:53:15;101710.09;;;3.28;94.84
49979;BME280;35869;50.990;6.962;2023-03-15T21:58:15;101712.66;;;3.24;94.67
49979;BME280;35869;50.990;6.962;2023-03-15T22:03:15;101705.81;;;3.19;95.53
49979;BME280;35869;50.990;6.962;2023-03-15T22:08:15;101715.22;;;3.17;95.50
49979;BME280;35869;50.990;6.962;2023-03-15T22:13:16;101714.38;;;3.18;95.39
49979;BME280;35869;50.990;6.962;2023-03-15T22:18:16;101694.66;;;3.16;95.27
49979;BME280;35869;50.990;6.962;2023-03-15T22:23:17;101698.06;;;3.00;93.50
49979;BME280;35869;50.990;6.962;2023-03-15T22:28:18;101693.78;;;3.00;93.09
49979;BME280;35869;50.990;6.962;2023-03-15T22:33:19;101691.19;;;2.96;93.56
49979;BME280;35869;50.990;6.962;2023-03-15T22:38:19;101693.75;;;2.97;92.81
49979;BME280;35869;50.990;6.962;2023-03-15T22:43:19;101698.88;;;2.91;92.87
49979;BME280;35869;50.990;6.962;2023-03-15T22:48:19;101698.00;;;2.84;92.61
49979;BME280;35869;50.990;6.962;2023-03-15T22:53:20;101698.00;;;2.83;92.72
49979;BME280;35869;50.990;6.962;2023-03-15T22:58:20;101691.13;;;2.80;92.30
49979;BME280;35869;50.990;6.962;2023-03-15T23:03:21;101684.28;;;2.81;91.11
49979;BME280;35869;50.990;6.962;2023-03-15T23:08:21;101691.09;;;2.68;92.07
49979;BME280;35869;50.990;6.962;2023-03-15T23:13:21;101692.84;;;2.78;91.88
49979;BME280;35869;50.990;6.962;2023-03-15T23:18:21;101692.84;;;2.75;91.98
49979;BME280;35869;50.990;6.962;2023-03-15T23:23:22;101689.41;;;2.64;91.44
49979;BME280;35869;50.990;6.962;2023-03-15T23:28:22;101689.38;;;2.61;91.57
49979;BME280;35869;50.990;6.962;2023-03-15T23:33:22;101696.22;;;2.59;92.19
49979;BME280;35869;50.990;6.962;2023-03-15T23:38:22;101701.31;;;2.56;91.19
49979;BME280;35869;50.990;6.962;2023-03-15T23:43:22;101718.44;;;2.54;92.80
49979;BME280;35869;50.990;6.962;2023-03-15T23:48:24;101712.44;;;2.55;93.19
49979;BME280;35869;50.990;6.962;2023-03-15T23:53:24;101706.47;;;2.53;92.72
49979;BME280;35869;50.990;6.962;2023-03-15T23:58:24;101707.28;;;2.50;93.43
